Time;durP1;ratioP1;P1;durP2;ratioP2;P2;SDS_P1;SDS_P2;PMS_P1;PMS_P2;Temp;Humidity;BMP_temperature;BMP_pressure;BME280_temperature;BME280_humidity;BME280_pressure;Samples;Min_cycle;Max_cycle;Signal;HPM_P1;HPM_P2
2022/01/28 00:00:01;;;;;;;34.88;7.22;;;;;;;;;;6128324;23;20001;-93
2022/01/28 00:03:04;;;;;;;34.20;7.00;;;;;;;;;;6134887;23;20006;-94
2022/01/28 00:05:21;;;;;;;36.70;6.28;;;;;;;;;;6131909;23;20453;-94
2022/01/28 00:07:47;;;;;;;30.38;5.60;;;;;;;;;;6136651;23;20002;-94
2022/01/28 00:10:16;;;;;;;38.83;6.57;;;;;;;;;;6134377;23;20021;-93
2022/01/28 00:15:37;;;;;;;49.95;7.50;;;;;;;;;;6138883;23;20033;-94
2022/01/28 00:42:03;;;;;;;34.58;7.35;;;;;;;;;;6190383;23;20025;-94
2022/01/28 00:44:29;;;;;;;35.85;6.93;;;;;;;;;;6196012;23;20001;-94
2022/01/28 00:46:56;;;;;;;34.42;6.90;;;;;;;;;;6192859;23;20080;-93
2022/01/28 00:49:23;;;;;;;36.03;7.63;;;;;;;;;;6194664;23;20001;-93
2022/01/28 00:51:50;;;;;;;39.65;7.28;;;;;;;;;;6194062;23;20001;-93
2022/01/28 00:54:19;;;;;;;30.90;5.88;;;;;;;;;;6192467;23;20013;-94
2022/01/28 00:56:45;;;;;;;36.88;8.05;;;;;;;;;;6167303;23;19997;-93
2022/01/28 00:59:11;;;;;;;46.63;10.35;;;;;;;;;;6193107;23;20005;-94
2022/01/28 01:01:38;;;;;;;35.13;6.95;;;;;;;;;;6195324;23;20001;-93
2022/01/28 01:04:15;;;;;;;40.60;7.05;;;;;;;;;;6197387;23;20128;-93
2022/01/28 01:06:43;;;;;;;39.80;7.55;;;;;;;;;;6189565;23;20047;-94
2022/01/28 01:09:10;;;;;;;36.65;6.30;;;;;;;;;;6192383;23;19997;-93
2022/01/28 01:11:39;;;;;;;38.75;6.57;;;;;;;;;;6191992;23;20025;-94
2022/01/28 01:14:04;;;;;;;47.22;8.07;;;;;;;;;;6193211;23;20037;-94
2022/01/28 01:16:38;;;;;;;38.35;7.78;;;;;;;;;;6193361;23;20001;-93
2022/01/28 01:21:39;;;;;;;39.10;6.90;;;;;;;;;;6202197;23;20430;-93
2022/01/28 01:24:07;;;;;;;41.50;7.30;;;;;;;;;;6188962;23;20004;-93
2022/01/28 01:26:38;;;;;;;40.00;6.55;;;;;;;;;;6186996;23;20029;-93
2022/01/28 01:29:06;;;;;;;31.30;7.38;;;;;;;;;;6189961;23;20005;-93
2022/01/28 01:31:32;;;;;;;40.33;7.20;;;;;;;;;;6191741;23;20013;-93
2022/01/28 01:34:09;;;;;;;37.92;7.68;;;;;;;;;;6189375;23;20023;-93
2022/01/28 01:36:35;;;;;;;38.33;8.65;;;;;;;;;;6189718;23;19997;-93
2022/01/28 01:39:02;;;;;;;40.58;6.97;;;;;;;;;;6190629;23;20293;-93
2022/01/28 01:41:38;;;;;;;40.88;7.72;;;;;;;;;;6189836;23;20005;-93
2022/01/28 01:44:08;;;;;;;32.95;6.15;;;;;;;;;;6188577;23;20414;-94
2022/01/28 01:52:04;;;;;;;30.70;6.18;;;;;;;;;;6194496;23;20031;-93
2022/01/28 01:54:41;;;;;;;32.33;6.32;;;;;;;;;;6198664;23;20116;-94
2022/01/28 01:57:08;;;;;;;33.80;6.47;;;;;;;;;;6194946;23;20000;-94
2022/01/28 01:59:36;;;;;;;31.73;6.70;;;;;;;;;;6198933;23;19996;-93
2022/01/28 02:02:02;;;;;;;34.97;5.50;;;;;;;;;;6193966;23;20032;-93
2022/01/28 02:04:30;;;;;;;41.80;5.80;;;;;;;;;;6194265;23;20005;-93
2022/01/28 02:06:58;;;;;;;39.92;7.00;;;;;;;;;;6168326;23;20058;-94
2022/01/28 02:09:23;;;;;;;41.17;6.53;;;;;;;;;;6194169;23;20001;-93
2022/01/28 02:11:49;;;;;;;45.47;7.65;;;;;;;;;;6194386;23;20047;-93
2022/01/28 02:14:14;;;;;;;39.33;7.43;;;;;;;;;;6193430;23;20414;-93
2022/01/28 02:16:40;;;;;;;33.30;5.37;;;;;;;;;;6189143;23;20008;-93
2022/01/28 02:19:05;;;;;;;30.77;5.38;;;;;;;;;;6188839;23;20236;-93
2022/01/28 02:21:34;;;;;;;44.25;7.03;;;;;;;;;;6191213;23;20001;-93
2022/01/28 02:24:03;;;;;;;45.72;7.43;;;;;;;;;;6188803;23;20008;-93
2022/01/28 02:26:29;;;;;;;39.47;7.15;;;;;;;;;;6189106;23;20084;-93
2022/01/28 02:28:58;;;;;;;36.70;7.38;;;;;;;;;;6193422;23;20000;-94
2022/01/28 02:31:27;;;;;;;31.70;6.28;;;;;;;;;;6193852;23;20361;-93
2022/01/28 02:33:56;;;;;;;47.47;8.50;;;;;;;;;;6193353;23;20016;-93
2022/01/28 02:36:25;;;;;;;45.67;7.03;;;;;;;;;;6193702;23;20414;-94
2022/01/28 02:38:51;;;;;;;50.13;7.53;;;;;;;;;;6192841;23;20063;-93
2022/01/28 02:41:17;;;;;;;52.13;9.48;;;;;;;;;;6190633;23;20001;-93
2022/01/28 02:43:56;;;;;;;36.60;7.28;;;;;;;;;;6191988;23;20088;-93
2022/01/28 02:46:26;;;;;;;44.17;6.75;;;;;;;;;;6191767;23;20089;-93
2022/01/28 02:49:02;;;;;;;39.83;7.30;;;;;;;;;;6192092;23;20005;-93
2022/01/28 02:51:27;;;;;;;39.75;6.22;;;;;;;;;;6192042;23;20000;-93
2022/01/28 02:53:57;;;;;;;37.38;6.38;;;;;;;;;;6192369;23;20024;-93
2022/01/28 02:56:48;;;;;;;38.15;7.78;;;;;;;;;;6191041;23;20008;-93
2022/01/28 02:59:08;;;;;;;27.63;5.90;;;;;;;;;;6189180;23;20031;-93
2022/01/28 03:01:33;;;;;;;32.03;5.38;;;;;;;;;;6194316;23;20020;-93
2022/01/28 03:04:01;;;;;;;35.20;5.43;;;;;;;;;;6192284;23;20362;-93
2022/01/28 03:06:27;;;;;;;38.70;6.35;;;;;;;;;;6189809;23;20408;-93
2022/01/28 03:09:00;;;;;;;30.42;6.22;;;;;;;;;;6199157;23;20012;-94
2022/01/28 03:14:22;;;;;;;28.95;5.30;;;;;;;;;;6206657;23;20032;-94
2022/01/28 03:19:47;;;;;;;39.42;6.22;;;;;;;;;;6195144;23;20008;-93
2022/01/28 03:22:16;;;;;;;33.67;5.95;;;;;;;;;;6195225;23;20004;-94
2022/01/28 03:24:46;;;;;;;31.35;6.13;;;;;;;;;;6194611;23;20065;-94
2022/01/28 03:27:19;;;;;;;28.98;5.35;;;;;;;;;;6191529;23;20005;-94
2022/01/28 03:29:45;;;;;;;22.77;5.22;;;;;;;;;;6194420;23;20060;-94
2022/01/28 03:32:12;;;;;;;29.13;5.45;;;;;;;;;;6193827;23;20001;-94
2022/01/28 03:34:41;;;;;;;28.15;5.78;;;;;;;;;;6195955;23;20015;-94
2022/01/28 03:37:14;;;;;;;30.58;4.90;;;;;;;;;;6194967;23;20017;-93
2022/01/28 03:39:48;;;;;;;32.15;5.20;;;;;;;;;;6191155;23;20021;-93
2022/01/28 03:42:23;;;;;;;41.58;6.28;;;;;;;;;;6195753;23;20000;-94
2022/01/28 03:44:51;;;;;;;37.78;6.07;;;;;;;;;;6192040;23;20005;-93
2022/01/28 03:47:22;;;;;;;29.77;5.70;;;;;;;;;;6194506;23;20069;-94
2022/01/28 03:50:12;;;;;;;38.83;9.00;;;;;;;;;;6193643;23;20005;-94
2022/01/28 03:53:00;;;;;;;32.60;6.72;;;;;;;;;;6191754;23;20013;-94
2022/01/28 03:58:14;;;;;;;31.55;6.50;;;;;;;;;;6197933;23;20013;-94
2022/01/28 04:00:44;;;;;;;30.85;5.80;;;;;;;;;;6198039;23;20001;-93
2022/01/28 04:11:38;;;;;;;37.53;7.20;;;;;;;;;;6205272;23;20064;-94
2022/01/28 04:22:17;;;;;;;40.08;5.97;;;;;;;;;;6168975;23;20021;-93
2022/01/28 04:24:44;;;;;;;43.83;6.30;;;;;;;;;;6166519;23;20023;-93
2022/01/28 04:29:45;;;;;;;32.42;7.97;;;;;;;;;;6221642;23;20031;-94
2022/01/28 04:32:11;;;;;;;45.20;8.30;;;;;;;;;;6202181;23;20000;-94
2022/01/28 04:34:38;;;;;;;36.97;6.93;;;;;;;;;;6203551;23;20027;-94
2022/01/28 04:37:16;;;;;;;40.75;7.50;;;;;;;;;;6203378;23;20008;-93
2022/01/28 04:40:28;;;;;;;37.55;7.50;;;;;;;;;;6225941;23;20498;-93
2022/01/28 04:42:46;;;;;;;49.83;9.32;;;;;;;;;;6217230;23;20011;-93
2022/01/28 04:45:28;;;;;;;39.95;7.43;;;;;;;;;;6200200;23;20005;-93
2022/01/28 04:50:54;;;;;;;44.72;7.05;;;;;;;;;;6191405;23;20434;-93
2022/01/28 04:56:08;;;;;;;38.40;5.55;;;;;;;;;;6164028;23;20002;-93
2022/01/28 04:58:58;;;;;;;36.05;6.50;;;;;;;;;;6159613;23;20017;-93
2022/01/28 05:23:04;;;;;;;32.65;5.50;;;;;;;;;;6157873;23;20036;-94
2022/01/28 05:27:46;;;;;;;37.35;5.82;;;;;;;;;;6165729;23;20001;-93
2022/01/28 05:30:12;;;;;;;36.53;6.25;;;;;;;;;;6162721;23;19997;-93
2022/01/28 05:32:37;;;;;;;34.67;5.25;;;;;;;;;;6163058;23;20037;-93
2022/01/28 05:35:03;;;;;;;38.92;6.15;;;;;;;;;;6162494;23;20004;-93
2022/01/28 05:37:29;;;;;;;45.15;7.57;;;;;;;;;;6162063;23;20001;-93
2022/01/28 05:39:54;;;;;;;35.88;7.10;;;;;;;;;;6137482;23;20005;-93
2022/01/28 05:42:20;;;;;;;27.77;5.80;;;;;;;;;;6173717;23;20009;-93
2022/01/28 05:44:45;;;;;;;34.95;6.18;;;;;;;;;;6137687;23;20084;-93
2022/01/28 05:47:15;;;;;;;33.90;5.85;;;;;;;;;;6160620;23;19997;-93
2022/01/28 05:49:41;;;;;;;40.45;6.47;;;;;;;;;;6134657;23;20024;-93
2022/01/28 05:52:06;;;;;;;56.85;7.63;;;;;;;;;;6160554;23;20008;-93
2022/01/28 05:54:32;;;;;;;36.92;7.03;;;;;;;;;;6160790;23;20005;-94
2022/01/28 05:56:59;;;;;;;31.67;5.88;;;;;;;;;;6166724;23;20006;-93
2022/01/28 05:59:30;;;;;;;29.42;5.97;;;;;;;;;;6140375;23;20069;-94
2022/01/28 06:02:04;;;;;;;37.33;7.53;;;;;;;;;;6195006;23;20040;-94
2022/01/28 06:04:30;;;;;;;33.03;7.32;;;;;;;;;;6196597;23;20013;-93
2022/01/28 06:06:58;;;;;;;34.70;6.38;;;;;;;;;;6191397;23;20078;-93
2022/01/28 06:09:24;;;;;;;36.17;5.03;;;;;;;;;;6193827;23;20019;-93
2022/01/28 06:11:50;;;;;;;41.55;6.88;;;;;;;;;;6188676;23;20014;-93
2022/01/28 06:14:15;;;;;;;29.88;6.30;;;;;;;;;;6184369;23;20036;-93
2022/01/28 06:16:41;;;;;;;29.30;6.43;;;;;;;;;;6184992;23;20005;-93
2022/01/28 06:19:06;;;;;;;35.28;6.38;;;;;;;;;;6184947;23;20005;-93
2022/01/28 06:21:31;;;;;;;31.67;6.40;;;;;;;;;;6185347;23;20017;-92
2022/01/28 06:23:57;;;;;;;34.50;5.85;;;;;;;;;;6185943;23;20287;-93
2022/01/28 06:26:22;;;;;;;32.22;6.45;;;;;;;;;;6184949;23;20011;-93
2022/01/28 06:28:48;;;;;;;32.60;7.28;;;;;;;;;;6186996;23;20361;-93
2022/01/28 06:31:13;;;;;;;30.50;5.43;;;;;;;;;;6187988;23;20017;-93
2022/01/28 06:33:38;;;;;;;35.95;6.07;;;;;;;;;;6185747;23;20375;-92
2022/01/28 06:36:04;;;;;;;46.28;6.30;;;;;;;;;;6186699;23;20005;-93
2022/01/28 06:38:30;;;;;;;33.20;6.57;;;;;;;;;;6188186;23;20394;-93
2022/01/28 06:40:55;;;;;;;36.67;5.50;;;;;;;;;;6188569;23;20063;-93
2022/01/28 06:43:21;;;;;;;35.28;6.05;;;;;;;;;;6188460;23;20380;-93
2022/01/28 06:45:47;;;;;;;34.53;6.43;;;;;;;;;;6188559;23;20005;-93
2022/01/28 06:48:13;;;;;;;29.88;5.80;;;;;;;;;;6187044;23;20008;-93
2022/01/28 06:50:42;;;;;;;35.67;7.60;;;;;;;;;;6188034;23;20034;-93
2022/01/28 06:53:07;;;;;;;38.85;6.63;;;;;;;;;;6162980;23;20009;-93
2022/01/28 06:55:33;;;;;;;38.42;8.35;;;;;;;;;;6188288;23;20063;-94
2022/01/28 06:57:58;;;;;;;32.35;6.10;;;;;;;;;;6187048;23;20087;-93
2022/01/28 07:00:24;;;;;;;52.88;8.00;;;;;;;;;;6187530;23;20008;-93
2022/01/28 07:02:50;;;;;;;40.72;5.57;;;;;;;;;;6189938;23;20001;-93
2022/01/28 07:05:19;;;;;;;38.00;7.03;;;;;;;;;;6193795;23;20021;-93
2022/01/28 07:07:46;;;;;;;37.55;6.43;;;;;;;;;;6190041;23;20315;-93
2022/01/28 07:10:12;;;;;;;38.92;7.18;;;;;;;;;;6187190;23;20088;-93
2022/01/28 07:12:37;;;;;;;37.78;6.32;;;;;;;;;;6186457;23;20036;-93
2022/01/28 07:15:03;;;;;;;30.00;6.13;;;;;;;;;;6186451;23;20139;-93
2022/01/28 07:17:28;;;;;;;38.63;7.28;;;;;;;;;;6187255;23;20005;-92
2022/01/28 07:19:56;;;;;;;46.22;7.43;;;;;;;;;;6188972;23;20052;-93
2022/01/28 07:22:22;;;;;;;32.40;6.80;;;;;;;;;;6186224;23;20000;-93
2022/01/28 07:24:48;;;;;;;47.10;7.53;;;;;;;;;;6189199;23;20065;-93
2022/01/28 07:27:20;;;;;;;42.28;6.30;;;;;;;;;;6195597;23;20054;-93
2022/01/28 07:29:50;;;;;;;42.75;7.57;;;;;;;;;;6188397;23;19997;-92
2022/01/28 07:32:15;;;;;;;45.67;7.93;;;;;;;;;;6186279;23;20004;-93
2022/01/28 07:34:41;;;;;;;32.53;6.32;;;;;;;;;;6188535;23;20031;-93
2022/01/28 07:37:09;;;;;;;37.38;6.22;;;;;;;;;;6200347;23;20012;-94
2022/01/28 07:42:05;;;;;;;30.30;5.40;;;;;;;;;;6190251;23;20437;-93
2022/01/28 07:44:51;;;;;;;37.88;5.70;;;;;;;;;;6198132;23;19997;-94
2022/01/28 07:47:26;;;;;;;47.95;6.47;;;;;;;;;;6197335;22;20029;-94
2022/01/28 07:49:52;;;;;;;36.20;8.35;;;;;;;;;;6201251;23;20001;-93
2022/01/28 07:54:59;;;;;;;37.97;7.30;;;;;;;;;;6203577;23;20084;-94
2022/01/28 07:57:27;;;;;;;37.42;5.75;;;;;;;;;;6165645;23;20325;-94
2022/01/28 08:21:42;;;;;;;35.13;6.15;;;;;;;;;;6202806;22;20096;-94
2022/01/28 08:24:09;;;;;;;31.85;6.50;;;;;;;;;;6175014;23;20020;-94
2022/01/28 08:26:38;;;;;;;33.65;5.82;;;;;;;;;;6177653;23;20025;-94
2022/01/28 08:29:09;;;;;;;40.55;6.40;;;;;;;;;;6151628;23;20032;-93
2022/01/28 08:34:26;;;;;;;36.05;5.35;;;;;;;;;;6192207;22;20029;-94
2022/01/28 08:36:54;;;;;;;41.83;6.85;;;;;;;;;;6193369;23;20051;-92
2022/01/28 08:39:21;;;;;;;32.35;6.97;;;;;;;;;;6189649;23;20001;-93
2022/01/28 08:41:47;;;;;;;36.10;6.28;;;;;;;;;;6192878;23;20052;-93
2022/01/28 08:44:13;;;;;;;32.80;6.28;;;;;;;;;;6194410;23;20009;-93
2022/01/28 08:46:38;;;;;;;33.70;6.00;;;;;;;;;;6194360;23;20016;-94
2022/01/28 08:51:45;;;;;;;32.85;6.20;;;;;;;;;;6194647;23;20052;-94
2022/01/28 08:54:10;;;;;;;31.88;6.55;;;;;;;;;;6199382;23;20314;-93
2022/01/28 08:56:43;;;;;;;28.40;6.82;;;;;;;;;;6198396;23;20087;-93
2022/01/28 09:01:59;;;;;;;34.53;5.68;;;;;;;;;;6166546;23;20028;-93
2022/01/28 09:04:29;;;;;;;35.10;6.13;;;;;;;;;;6197932;23;20032;-93
2022/01/28 09:06:55;;;;;;;32.72;4.97;;;;;;;;;;6192179;23;20217;-93
2022/01/28 09:09:22;;;;;;;40.85;6.65;;;;;;;;;;6194038;23;20001;-94
2022/01/28 09:12:06;;;;;;;35.72;6.80;;;;;;;;;;6191397;23;20001;-94
2022/01/28 09:14:31;;;;;;;32.65;5.13;;;;;;;;;;6193371;23;20013;-93
2022/01/28 09:16:57;;;;;;;32.60;6.65;;;;;;;;;;6194049;23;20005;-93
2022/01/28 09:19:23;;;;;;;30.10;6.00;;;;;;;;;;6188972;23;20349;-93
2022/01/28 09:21:49;;;;;;;33.60;5.68;;;;;;;;;;6190174;23;20025;-93
2022/01/28 09:24:14;;;;;;;36.60;7.00;;;;;;;;;;6194507;23;19997;-93
2022/01/28 09:26:40;;;;;;;34.25;6.22;;;;;;;;;;6193453;23;20055;-93
2022/01/28 09:29:06;;;;;;;26.90;4.95;;;;;;;;;;6167387;23;20001;-93
2022/01/28 09:31:33;;;;;;;29.33;5.72;;;;;;;;;;6192809;23;20001;-93
2022/01/28 09:33:58;;;;;;;28.02;5.60;;;;;;;;;;6193074;23;20032;-93
2022/01/28 09:36:24;;;;;;;19.45;4.55;;;;;;;;;;6193015;23;20065;-93
2022/01/28 09:38:50;;;;;;;33.00;5.80;;;;;;;;;;6191041;23;20009;-93
2022/01/28 09:41:16;;;;;;;27.00;5.53;;;;;;;;;;6189851;23;20031;-93
2022/01/28 09:43:43;;;;;;;20.58;4.43;;;;;;;;;;6192696;23;20032;-93
2022/01/28 09:46:08;;;;;;;36.30;5.32;;;;;;;;;;6189536;23;20031;-93
2022/01/28 09:48:34;;;;;;;33.97;5.00;;;;;;;;;;6191655;23;20501;-93
2022/01/28 09:51:00;;;;;;;34.75;4.95;;;;;;;;;;6187150;23;20028;-93
2022/01/28 09:53:26;;;;;;;29.80;5.63;;;;;;;;;;6189056;23;20117;-93
2022/01/28 09:55:53;;;;;;;22.00;4.47;;;;;;;;;;6193484;23;20001;-94
2022/01/28 09:58:20;;;;;;;19.23;4.38;;;;;;;;;;6196656;23;20001;-93
2022/01/28 10:00:47;;;;;;;38.17;5.90;;;;;;;;;;6166614;23;20005;-94
2022/01/28 10:03:14;;;;;;;33.75;7.00;;;;;;;;;;6190271;23;20011;-94
2022/01/28 10:05:43;;;;;;;21.67;3.70;;;;;;;;;;6191112;23;20442;-93
2022/01/28 10:10:46;;;;;;;23.65;4.85;;;;;;;;;;6177174;23;20041;-93
2022/01/28 10:13:15;;;;;;;31.55;5.88;;;;;;;;;;6137192;23;20164;-93
2022/01/28 10:15:54;;;;;;;25.60;5.40;;;;;;;;;;6141353;23;20013;-93
2022/01/28 10:18:21;;;;;;;26.65;5.00;;;;;;;;;;6138871;23;20006;-93
2022/01/28 10:23:22;;;;;;;27.63;5.05;;;;;;;;;;6198929;23;20095;-93
2022/01/28 10:25:56;;;;;;;32.85;5.93;;;;;;;;;;6194697;23;20024;-94
2022/01/28 10:28:44;;;;;;;28.17;5.25;;;;;;;;;;6204923;23;20009;-94
2022/01/28 10:31:20;;;;;;;27.55;5.65;;;;;;;;;;6201697;23;20072;-94
2022/01/28 10:33:48;;;;;;;20.08;3.63;;;;;;;;;;6197002;23;20021;-94
2022/01/28 10:36:30;;;;;;;25.98;5.38;;;;;;;;;;6194768;23;20008;-93
2022/01/28 10:38:57;;;;;;;29.75;4.50;;;;;;;;;;6168661;23;20001;-93
2022/01/28 10:41:25;;;;;;;24.95;4.97;;;;;;;;;;6191709;23;20056;-93
2022/01/28 10:43:56;;;;;;;21.17;3.58;;;;;;;;;;6188364;23;20069;-93
2022/01/28 10:46:26;;;;;;;24.30;4.63;;;;;;;;;;6197154;23;20021;-93
2022/01/28 10:48:52;;;;;;;25.40;5.35;;;;;;;;;;6209066;23;19989;-93
2022/01/28 10:51:17;;;;;;;19.65;4.90;;;;;;;;;;6174218;23;20019;-93
2022/01/28 10:54:01;;;;;;;23.98;3.95;;;;;;;;;;6162883;23;20024;-93
2022/01/28 10:56:26;;;;;;;26.50;5.30;;;;;;;;;;6187546;23;20063;-93
2022/01/28 10:58:51;;;;;;;31.30;5.03;;;;;;;;;;6187247;23;20032;-93
2022/01/28 11:01:17;;;;;;;22.52;5.40;;;;;;;;;;6187265;23;20080;-93
2022/01/28 11:03:42;;;;;;;20.52;4.45;;;;;;;;;;6185691;23;20024;-93
2022/01/28 11:06:07;;;;;;;18.40;4.13;;;;;;;;;;6187282;23;20029;-93
2022/01/28 11:08:34;;;;;;;22.13;3.97;;;;;;;;;;6187875;23;20357;-93
2022/01/28 11:11:00;;;;;;;28.58;4.75;;;;;;;;;;6187125;23;20020;-94
2022/01/28 11:13:25;;;;;;;26.45;4.22;;;;;;;;;;6188973;23;20044;-93
2022/01/28 11:15:51;;;;;;;29.73;4.25;;;;;;;;;;6189465;23;20005;-94
2022/01/28 11:18:16;;;;;;;19.02;3.92;;;;;;;;;;6190191;23;20039;-93
2022/01/28 11:20:45;;;;;;;26.88;5.40;;;;;;;;;;6193323;23;19997;-93
2022/01/28 11:23:17;;;;;;;23.60;4.45;;;;;;;;;;6166039;23;20001;-93
2022/01/28 11:25:46;;;;;;;20.52;4.93;;;;;;;;;;6190500;23;20005;-93
2022/01/28 11:28:12;;;;;;;27.75;6.75;;;;;;;;;;6186064;23;20059;-93
2022/01/28 11:30:44;;;;;;;25.45;5.43;;;;;;;;;;6187621;23;20363;-93
2022/01/28 11:33:11;;;;;;;31.65;4.88;;;;;;;;;;6189246;23;20016;-93
2022/01/28 11:36:00;;;;;;;29.73;4.65;;;;;;;;;;6189317;23;20000;-93
2022/01/28 11:38:26;;;;;;;21.35;4.13;;;;;;;;;;6148639;23;20016;-93
2022/01/28 11:40:52;;;;;;;22.95;4.05;;;;;;;;;;6167217;23;20001;-93
2022/01/28 11:43:28;;;;;;;27.83;5.47;;;;;;;;;;6189410;23;20083;-94
2022/01/28 11:46:11;;;;;;;21.65;4.43;;;;;;;;;;6188680;23;20023;-93
2022/01/28 11:48:54;;;;;;;27.60;4.57;;;;;;;;;;6188019;23;20072;-93
2022/01/28 11:51:20;;;;;;;24.35;4.20;;;;;;;;;;6189417;23;20080;-93
2022/01/28 11:54:02;;;;;;;25.25;4.63;;;;;;;;;;6188248;23;20021;-93
2022/01/28 11:56:28;;;;;;;28.70;5.70;;;;;;;;;;6189762;23;20054;-93
2022/01/28 11:59:14;;;;;;;26.10;4.10;;;;;;;;;;6189893;23;19997;-93
2022/01/28 12:01:40;;;;;;;29.15;4.30;;;;;;;;;;6163829;23;20001;-93
2022/01/28 12:04:35;;;;;;;28.73;5.03;;;;;;;;;;6189775;23;20001;-94
2022/01/28 12:07:01;;;;;;;22.13;4.90;;;;;;;;;;6188137;23;20005;-93
2022/01/28 12:09:28;;;;;;;30.77;5.18;;;;;;;;;;6189035;23;20001;-93
2022/01/28 12:11:54;;;;;;;25.63;4.80;;;;;;;;;;6188743;23;20005;-93
2022/01/28 12:14:39;;;;;;;29.42;5.05;;;;;;;;;;6188144;23;20028;-93
2022/01/28 12:17:24;;;;;;;30.38;6.03;;;;;;;;;;6188212;23;20291;-93
2022/01/28 12:20:24;;;;;;;26.13;5.70;;;;;;;;;;6161380;23;20001;-93
2022/01/28 12:23:05;;;;;;;29.75;4.18;;;;;;;;;;6134152;23;20080;-93
2022/01/28 12:25:43;;;;;;;21.27;4.70;;;;;;;;;;6164539;23;20081;-93
2022/01/28 12:28:11;;;;;;;31.42;4.38;;;;;;;;;;6165398;23;20029;-93
2022/01/28 12:30:37;;;;;;;30.42;6.63;;;;;;;;;;6162250;23;20009;-93
2022/01/28 12:33:02;;;;;;;19.95;4.30;;;;;;;;;;6190896;23;20013;-93
2022/01/28 12:35:28;;;;;;;21.35;4.53;;;;;;;;;;6188533;23;19997;-93
2022/01/28 12:37:59;;;;;;;25.70;5.25;;;;;;;;;;6187332;23;19997;-94
2022/01/28 12:40:35;;;;;;;19.67;4.03;;;;;;;;;;6189676;23;20053;-93
2022/01/28 12:43:00;;;;;;;21.17;4.68;;;;;;;;;;6187968;23;20028;-93
2022/01/28 12:45:26;;;;;;;26.48;5.68;;;;;;;;;;6188720;23;20012;-93
2022/01/28 12:47:51;;;;;;;28.25;5.53;;;;;;;;;;6186798;23;20009;-93
2022/01/28 12:50:16;;;;;;;23.35;4.80;;;;;;;;;;6186444;23;20001;-93
2022/01/28 12:52:45;;;;;;;25.88;5.00;;;;;;;;;;6184959;23;20045;-93
2022/01/28 12:55:10;;;;;;;28.88;4.57;;;;;;;;;;6185181;23;20001;-93
2022/01/28 12:57:40;;;;;;;23.65;4.60;;;;;;;;;;6187599;23;20036;-93
2022/01/28 13:00:06;;;;;;;31.77;5.28;;;;;;;;;;6185711;23;20013;-94
2022/01/28 20:53:28;;;;;;;29.33;4.88;;;;;;;;;;6181436;23;20021;-93
2022/01/28 20:55:54;;;;;;;34.42;7.10;;;;;;;;;;6198885;23;20013;-94
2022/01/28 20:58:23;;;;;;;36.17;6.40;;;;;;;;;;6195879;23;20005;-94
2022/01/28 21:00:57;;;;;;;31.40;6.25;;;;;;;;;;6195976;23;20004;-93
2022/01/28 21:11:40;;;;;;;47.78;8.60;;;;;;;;;;6202087;23;20016;-94
2022/01/28 21:14:07;;;;;;;37.30;6.07;;;;;;;;;;6176400;23;20049;-94
2022/01/28 21:16:39;;;;;;;40.80;6.65;;;;;;;;;;6200267;23;20028;-94
2022/01/28 21:19:08;;;;;;;40.40;6.55;;;;;;;;;;6196209;23;20021;-94
2022/01/28 21:21:38;;;;;;;29.77;5.72;;;;;;;;;;6201388;23;20077;-94
2022/01/28 21:24:11;;;;;;;32.17;6.20;;;;;;;;;;6203430;23;20028;-94
2022/01/28 21:26:40;;;;;;;38.30;6.75;;;;;;;;;;6200723;23;20001;-94
2022/01/28 21:29:09;;;;;;;36.55;5.97;;;;;;;;;;6202188;23;20012;-93
2022/01/28 21:31:38;;;;;;;36.53;6.80;;;;;;;;;;6201447;23;19991;-93
2022/01/28 21:36:39;;;;;;;45.05;6.47;;;;;;;;;;6199356;23;20029;-94
2022/01/28 21:39:05;;;;;;;33.80;5.53;;;;;;;;;;6194459;23;20001;-93
2022/01/28 21:41:36;;;;;;;33.15;6.50;;;;;;;;;;6196412;23;20005;-94
2022/01/28 21:44:08;;;;;;;40.72;8.00;;;;;;;;;;6196990;23;20010;-94
2022/01/28 21:46:35;;;;;;;35.17;5.53;;;;;;;;;;6197477;23;20060;-94
2022/01/28 21:49:05;;;;;;;23.88;4.85;;;;;;;;;;6197853;23;20001;-94
2022/01/28 21:51:44;;;;;;;28.38;6.22;;;;;;;;;;6190713;23;20016;-93
2022/01/28 21:54:16;;;;;;;32.25;7.45;;;;;;;;;;6194854;23;20013;-93
2022/01/28 21:56:54;;;;;;;27.90;5.97;;;;;;;;;;6192481;23;19997;-94
2022/01/28 21:59:19;;;;;;;39.60;6.47;;;;;;;;;;6192260;23;20012;-94
2022/01/28 22:01:48;;;;;;;37.17;6.28;;;;;;;;;;6192576;23;20154;-93
2022/01/28 22:04:14;;;;;;;29.55;6.15;;;;;;;;;;6168966;23;20027;-94
2022/01/28 22:06:41;;;;;;;31.38;6.65;;;;;;;;;;6193514;23;20001;-93
2022/01/28 22:09:07;;;;;;;43.75;7.03;;;;;;;;;;6197069;23;20005;-94
2022/01/28 22:11:38;;;;;;;29.63;6.63;;;;;;;;;;6189944;23;20008;-94
2022/01/28 22:16:35;;;;;;;31.65;8.95;;;;;;;;;;6195791;23;20025;-94
2022/01/28 22:19:02;;;;;;;39.88;8.25;;;;;;;;;;6195680;23;20216;-94
2022/01/28 22:21:31;;;;;;;29.95;6.97;;;;;;;;;;6197280;23;20005;-93
2022/01/28 22:23:58;;;;;;;36.00;7.75;;;;;;;;;;6197600;23;20001;-94
2022/01/28 22:26:24;;;;;;;35.13;7.60;;;;;;;;;;6195826;23;20001;-94
2022/01/28 22:28:50;;;;;;;35.28;7.68;;;;;;;;;;6195593;23;20007;-94
2022/01/28 22:31:16;;;;;;;29.73;7.45;;;;;;;;;;6193445;23;20012;-94
2022/01/28 22:33:42;;;;;;;31.45;7.13;;;;;;;;;;6195420;23;20333;-94
2022/01/28 22:36:09;;;;;;;38.42;7.78;;;;;;;;;;6195416;22;20005;-93
2022/01/28 22:38:37;;;;;;;32.28;8.45;;;;;;;;;;6165778;23;20338;-94
2022/01/28 22:41:05;;;;;;;40.55;9.73;;;;;;;;;;6143511;23;20018;-94
2022/01/28 22:43:31;;;;;;;35.33;9.60;;;;;;;;;;6141838;23;20069;-94
2022/01/28 22:45:56;;;;;;;48.72;10.15;;;;;;;;;;6165880;23;20009;-94
2022/01/28 22:48:23;;;;;;;37.50;11.55;;;;;;;;;;6140820;23;19998;-94
2022/01/28 22:50:52;;;;;;;51.92;12.02;;;;;;;;;;6143914;23;20001;-93
2022/01/28 22:53:18;;;;;;;48.00;12.23;;;;;;;;;;6143320;23;20006;-94
2022/01/28 22:55:47;;;;;;;41.15;12.10;;;;;;;;;;6142855;23;20056;-94
2022/01/28 22:58:12;;;;;;;48.33;13.43;;;;;;;;;;6145020;23;20105;-94
2022/01/28 23:00:38;;;;;;;40.80;12.68;;;;;;;;;;6143872;23;20370;-94
2022/01/28 23:03:06;;;;;;;46.88;12.30;;;;;;;;;;6142113;23;21821;-94
2022/01/28 23:05:31;;;;;;;49.15;13.20;;;;;;;;;;6140203;23;20099;-94
2022/01/28 23:07:57;;;;;;;39.28;13.32;;;;;;;;;;6140773;23;20001;-93
2022/01/28 23:10:23;;;;;;;38.03;12.95;;;;;;;;;;6138314;23;20005;-93
2022/01/28 23:12:49;;;;;;;43.53;14.38;;;;;;;;;;6127438;23;20000;-93
2022/01/28 23:15:14;;;;;;;52.40;16.08;;;;;;;;;;6138478;23;20009;-93
2022/01/28 23:17:40;;;;;;;50.28;16.40;;;;;;;;;;6139855;23;19993;-94
2022/01/28 23:20:06;;;;;;;44.13;19.00;;;;;;;;;;6140632;23;20005;-94
2022/01/28 23:22:32;;;;;;;54.05;19.05;;;;;;;;;;6139190;23;19993;-93
2022/01/28 23:24:57;;;;;;;63.08;19.05;;;;;;;;;;6141344;23;20080;-94
2022/01/28 23:27:25;;;;;;;59.03;18.65;;;;;;;;;;6164441;23;20001;-93
2022/01/28 23:29:50;;;;;;;48.70;18.17;;;;;;;;;;6139746;23;20032;-93
2022/01/28 23:32:17;;;;;;;64.00;20.52;;;;;;;;;;6138911;23;20001;-93
2022/01/28 23:34:52;;;;;;;59.72;21.52;;;;;;;;;;6141130;23;20312;-93
2022/01/28 23:37:18;;;;;;;43.85;20.20;;;;;;;;;;6141957;23;20004;-94
2022/01/28 23:39:44;;;;;;;49.22;21.02;;;;;;;;;;6140046;23;20052;-94
2022/01/28 23:42:11;;;;;;;50.67;20.52;;;;;;;;;;6140785;23;20006;-94
2022/01/28 23:44:37;;;;;;;53.10;21.90;;;;;;;;;;6143064;23;20031;-94
2022/01/28 23:47:04;;;;;;;64.68;24.10;;;;;;;;;;6144172;23;20032;-94
2022/01/28 23:49:31;;;;;;;46.03;20.98;;;;;;;;;;6144476;23;20002;-94
2022/01/28 23:57:16;;;;;;;;;;;;;;;;;;6195565;22;20029;-94
2022/01/28 23:59:49;;;;;;;74.05;27.80;;;;;;;;;;6178683;22;19904;-94
